WetterOnline ( https://www.wetteronline.de )

Wetter aktuell Sonneberg

Aktuelles Wetter: Neuhaus (851m)

6-stündlich | Neueste Meldungen
Ortszeit Temperatur Wetter
Fr, 21.06. 8:00 17.5° C bewölkt
Fr, 21.06. 2:00 15.6° C wolkig
Do, 20.06. 20:00 17.1° C bewölkt
Do, 20.06. 14:00 16.0° C bewölkt
Do, 20.06. 8:00 9.2° C Nebel
Do, 20.06. 2:00 9.6° C Nebel
Mi, 19.06. 20:00 10.7° C Regen
Mi, 19.06. 14:00 13.2° C leichter Regen
Ortszeit Temperatur Wetter
Fr, 21.06. 10:30 18.9° C bewölkt
Fr, 21.06. 10:20 18.9° C bewölkt
Fr, 21.06. 10:10 19.1° C bedeckt
Fr, 21.06. 10:00 19.0° C bewölkt
Fr, 21.06. 9:50 19.0° C bewölkt
Fr, 21.06. 9:40 18.7° C bedeckt
Fr, 21.06. 9:30 18.3° C bewölkt
Fr, 21.06. 9:00 17.9° C bedeckt
Fr, 21.06. 8:30 17.6° C bewölkt
Fr, 21.06. 8:00 17.5° C bewölkt
Fr, 21.06. 7:30 17.2° C bewölkt
Ortszeit Relative Feuchte Sichtweite
Fr, 21.06. 8:00 92% 20 km
Fr, 21.06. 2:00 92% 24 km
Do, 20.06. 20:00 86% 40 km
Do, 20.06. 14:00 80% 40 km
Do, 20.06. 8:00 97% 3.6 km
Do, 20.06. 2:00 98% 100 m
Mi, 19.06. 20:00 97% 1.5 km
Mi, 19.06. 14:00 97% 0.2 km
Ortszeit Relative Feuchte Sichtweite
Fr, 21.06. 10:30 89% 21 km
Fr, 21.06. 10:20 89% -
Fr, 21.06. 10:10 89% -
Fr, 21.06. 10:00 89% 21 km
Fr, 21.06. 9:50 89% -
Fr, 21.06. 9:40 90% -
Fr, 21.06. 9:30 92% 17 km
Fr, 21.06. 9:00 93% 15 km
Fr, 21.06. 8:30 92% 16 km
Fr, 21.06. 8:00 92% 20 km
Fr, 21.06. 7:30 91% 23 km
Ortszeit Niederschlagsmenge Niederschlagsart
Fr, 21.06. 8:00 0.0 l/m2 in 12 Std. -
Fr, 21.06. 2:00 0.0 l/m2 in 6 Std. -
Do, 20.06. 20:00 0.0 l/m2 in 12 Std. -
Do, 20.06. 14:00 0.0 l/m2 in 6 Std. -
Do, 20.06. 8:00 0.2 l/m2 in 12 Std. -
Do, 20.06. 2:00 0.2 l/m2 in 6 Std. Sprühregen
Mi, 19.06. 20:00 3 l/m2 in 12 Std. Regen
Mi, 19.06. 14:00 0.9 l/m2 in 6 Std. Regen
Ortszeit Niederschlagsmenge Niederschlagsart
Fr, 21.06. 10:30 0.0 l/m2 in 30 Min -
Fr, 21.06. 10:20 keine Meldung -
Fr, 21.06. 10:10 keine Meldung -
Fr, 21.06. 10:00 0.0 l/m2 in 1 Std. -
Fr, 21.06. 9:50 keine Meldung -
Fr, 21.06. 9:40 keine Meldung -
Fr, 21.06. 9:30 0.0 l/m2 in 30 Min -
Fr, 21.06. 9:00 0.0 l/m2 in 1 Std. -
Fr, 21.06. 8:30 0.0 l/m2 in 30 Min -
Fr, 21.06. 8:00 0.0 l/m2 in 1 Std. -
Fr, 21.06. 7:30 0.0 l/m2 in 30 Min -
Ortszeit Stärke Spitze Richtung
km/h Bft. km/h Grad Sektor
Fr, 21.06. 8:00 17 3 24 190° S
Fr, 21.06. 2:00 9 2 26 200° S
Do, 20.06. 20:00 4 1 18 190° S
Do, 20.06. 14:00 9 2 30 60° NO
Do, 20.06. 8:00 11 2 22 50° NO
Do, 20.06. 2:00 9 2 24 40° NO
Mi, 19.06. 20:00 11 2 25 20° N
Mi, 19.06. 14:00 13 3 26 360° N
Ortszeit Stärke Spitze Richtung
km/h Bft. km/h Grad Sektor
Fr, 21.06. 10:30 17 3 28 180° S
Fr, 21.06. 10:20 17 3 - 180° S
Fr, 21.06. 10:10 17 3 - 170° S
Fr, 21.06. 10:00 14 3 29 170° S
Fr, 21.06. 9:50 14 3 - 170° S
Fr, 21.06. 9:40 14 3 - 170° S
Fr, 21.06. 9:30 18 3 29 170° S
Fr, 21.06. 9:00 15 3 30 190° S
Fr, 21.06. 8:30 17 3 30 180° S
Fr, 21.06. 8:00 17 3 24 190° S
Fr, 21.06. 7:30 13 3 22 200° S
Ortszeit Untergrenze Bedeckung Gattung
total tief tief mittel hoch
Fr, 21.06. 8:00 150 m 8/8 5/8 - - -
Fr, 21.06. 2:00 2400 m 7/8 3/8 - - -
Do, 20.06. 20:00 2400 m 8/8 7/8 - - -
Do, 20.06. 14:00 2100 m 7/8 7/8 - - -
Do, 20.06. 8:00 30 m 7/8 7/8 - - -
Do, 20.06. 2:00 <30 m 8/8 0/8 - - -
Mi, 19.06. 20:00 <30 m 8/8 0/8 - - -
Mi, 19.06. 14:00 <30 m 8/8 0/8 - - -
Ortszeit Bedeckungsgrad in Achtel und Wolkenuntergrenze
Fr, 21.06. 10:30 7(180m) 8(3000m)
Fr, 21.06. 10:20 7(180m) 8(3000m)
Fr, 21.06. 10:10 8
Fr, 21.06. 10:00 4(150m) 8(3000m) 8(3600m)
Fr, 21.06. 9:50 4(150m) 8(3000m) 8(3600m)
Fr, 21.06. 9:40 8
Fr, 21.06. 9:30 7(90m) 8(3300m)
Fr, 21.06. 9:00 8(90m) 8(3600m)
Fr, 21.06. 8:30 7(120m) 7(3300m) 8(6900m)
Fr, 21.06. 8:00 5(150m) 7(6000m) 8(6900m)
Fr, 21.06. 7:30 1(3300m) 7(6600m)
Ortszeit Stationsdruck (hPa) Tendenz (hPa in 3 Std.)
Fr, 21.06. 8:00 919 - 0,5
Fr, 21.06. 2:00 921 - 0,5
Do, 20.06. 20:00 922 - 0,6
Do, 20.06. 14:00 923 - 0,6
Do, 20.06. 8:00 924 + 0,7
Do, 20.06. 2:00 924 + 0,2
Mi, 19.06. 20:00 922 + 1,4
Mi, 19.06. 14:00 919 + 1,2
Ortszeit Stationsdruck (hPa) Tendenz (hPa in 3 Std.)
Fr, 21.06. 10:30 919 + 0,5
Fr, 21.06. 10:20 919 keine Meldung
Fr, 21.06. 10:10 919 keine Meldung
Fr, 21.06. 10:00 919 0,0
Fr, 21.06. 9:50 919 keine Meldung
Fr, 21.06. 9:40 919 keine Meldung
Fr, 21.06. 9:30 919 - 0,4
Fr, 21.06. 9:00 919 - 0,6
Fr, 21.06. 8:30 919 - 0,6
Fr, 21.06. 8:00 919 - 0,5
Fr, 21.06. 7:30 919 - 1,3
Ortszeit Schneehöhe (cm)
Fr, 21.06. 8:00 0
Fr, 21.06. 2:00 0
Do, 20.06. 20:00 0
Do, 20.06. 14:00 0
Do, 20.06. 8:00 0
Do, 20.06. 2:00 0
Mi, 19.06. 20:00 0
Mi, 19.06. 14:00 0
Ortszeit Schneehöhe (cm)
Fr, 21.06. 10:30 0
Fr, 21.06. 10:20 0
Fr, 21.06. 10:10 -
Fr, 21.06. 10:00 0
Fr, 21.06. 9:50 0
Fr, 21.06. 9:40 -
Fr, 21.06. 9:30 0
Fr, 21.06. 9:00 0
Fr, 21.06. 8:30 0
Fr, 21.06. 8:00 0
Fr, 21.06. 7:30 0
Link zu dieser Seite / Seite empfehlen

Das Wetter in ...